sensor_id;sensor_type;location;lat;lon;timestamp;P1;durP1;ratioP1;P2;durP2;ratioP2
20657;SDS011;10488;50.846;4.078;2023-07-13T00:01:34;5.55;;;1.75;;
20657;SDS011;10488;50.846;4.078;2023-07-13T00:04:00;8.85;;;1.92;;
20657;SDS011;10488;50.846;4.078;2023-07-13T00:06:26;10.00;;;2.20;;
20657;SDS011;10488;50.846;4.078;2023-07-13T00:08:55;7.00;;;2.38;;
20657;SDS011;10488;50.846;4.078;2023-07-13T00:11:20;10.10;;;2.17;;
20657;SDS011;10488;50.846;4.078;2023-07-13T00:13:46;10.40;;;2.50;;
20657;SDS011;10488;50.846;4.078;2023-07-13T00:16:12;10.80;;;2.50;;
20657;SDS011;10488;50.846;4.078;2023-07-13T00:18:38;10.65;;;2.97;;
20657;SDS011;10488;50.846;4.078;2023-07-13T00:21:05;8.38;;;1.98;;
20657;SDS011;10488;50.846;4.078;2023-07-13T00:23:31;10.73;;;2.65;;
20657;SDS011;10488;50.846;4.078;2023-07-13T00:25:59;10.07;;;2.20;;
20657;SDS011;10488;50.846;4.078;2023-07-13T00:28:25;9.88;;;2.45;;
20657;SDS011;10488;50.846;4.078;2023-07-13T00:30:51;6.78;;;2.05;;
20657;SDS011;10488;50.846;4.078;2023-07-13T00:33:17;10.57;;;2.42;;
20657;SDS011;10488;50.846;4.078;2023-07-13T00:35:42;11.20;;;2.53;;
20657;SDS011;10488;50.846;4.078;2023-07-13T00:38:09;8.48;;;2.03;;
20657;SDS011;10488;50.846;4.078;2023-07-13T00:40:35;14.65;;;2.47;;
20657;SDS011;10488;50.846;4.078;2023-07-13T00:43:00;11.38;;;2.67;;
20657;SDS011;10488;50.846;4.078;2023-07-13T00:47:52;8.85;;;2.28;;
20657;SDS011;10488;50.846;4.078;2023-07-13T00:50:18;9.07;;;1.90;;
20657;SDS011;10488;50.846;4.078;2023-07-13T00:52:48;9.48;;;2.38;;
20657;SDS011;10488;50.846;4.078;2023-07-13T00:55:18;9.90;;;2.30;;
20657;SDS011;10488;50.846;4.078;2023-07-13T00:57:45;9.40;;;2.40;;
20657;SDS011;10488;50.846;4.078;2023-07-13T01:00:11;7.75;;;1.90;;
20657;SDS011;10488;50.846;4.078;2023-07-13T01:02:38;13.85;;;2.50;;
20657;SDS011;10488;50.846;4.078;2023-07-13T01:05:10;11.50;;;2.58;;
20657;SDS011;10488;50.846;4.078;2023-07-13T01:07:40;9.95;;;1.98;;
20657;SDS011;10488;50.846;4.078;2023-07-13T01:10:09;9.65;;;1.85;;
20657;SDS011;10488;50.846;4.078;2023-07-13T01:12:35;10.98;;;2.40;;
20657;SDS011;10488;50.846;4.078;2023-07-13T01:15:01;9.13;;;2.22;;
20657;SDS011;10488;50.846;4.078;2023-07-13T01:17:28;12.63;;;3.15;;
20657;SDS011;10488;50.846;4.078;2023-07-13T01:19:54;10.18;;;2.47;;
20657;SDS011;10488;50.846;4.078;2023-07-13T01:22:20;8.45;;;2.10;;
20657;SDS011;10488;50.846;4.078;2023-07-13T01:24:51;10.30;;;2.42;;
20657;SDS011;10488;50.846;4.078;2023-07-13T01:27:23;15.00;;;2.65;;
20657;SDS011;10488;50.846;4.078;2023-07-13T01:29:51;7.22;;;2.20;;
20657;SDS011;10488;50.846;4.078;2023-07-13T01:32:19;12.32;;;3.00;;
20657;SDS011;10488;50.846;4.078;2023-07-13T01:34:49;14.02;;;3.22;;
20657;SDS011;10488;50.846;4.078;2023-07-13T01:37:19;13.25;;;2.55;;
20657;SDS011;10488;50.846;4.078;2023-07-13T01:39:46;8.73;;;2.45;;
20657;SDS011;10488;50.846;4.078;2023-07-13T01:42:12;9.73;;;2.30;;
20657;SDS011;10488;50.846;4.078;2023-07-13T01:44:38;8.32;;;2.30;;
20657;SDS011;10488;50.846;4.078;2023-07-13T01:47:04;10.35;;;2.85;;
20657;SDS011;10488;50.846;4.078;2023-07-13T01:49:30;11.40;;;2.67;;
20657;SDS011;10488;50.846;4.078;2023-07-13T01:51:56;13.23;;;2.50;;
20657;SDS011;10488;50.846;4.078;2023-07-13T01:54:22;11.25;;;2.25;;
20657;SDS011;10488;50.846;4.078;2023-07-13T01:56:47;13.57;;;3.17;;
20657;SDS011;10488;50.846;4.078;2023-07-13T01:59:13;9.70;;;2.45;;
20657;SDS011;10488;50.846;4.078;2023-07-13T02:01:38;12.55;;;2.45;;
20657;SDS011;10488;50.846;4.078;2023-07-13T02:04:04;8.13;;;3.20;;
20657;SDS011;10488;50.846;4.078;2023-07-13T02:06:30;16.65;;;4.47;;
20657;SDS011;10488;50.846;4.078;2023-07-13T02:08:56;15.20;;;3.30;;
20657;SDS011;10488;50.846;4.078;2023-07-13T02:11:22;11.90;;;2.63;;
20657;SDS011;10488;50.846;4.078;2023-07-13T02:13:48;13.68;;;2.80;;
20657;SDS011;10488;50.846;4.078;2023-07-13T02:16:13;12.02;;;2.90;;
20657;SDS011;10488;50.846;4.078;2023-07-13T02:18:39;8.63;;;2.67;;
20657;SDS011;10488;50.846;4.078;2023-07-13T02:21:05;10.40;;;2.70;;
20657;SDS011;10488;50.846;4.078;2023-07-13T02:23:31;12.70;;;3.10;;
20657;SDS011;10488;50.846;4.078;2023-07-13T02:25:57;11.15;;;2.90;;
20657;SDS011;10488;50.846;4.078;2023-07-13T02:28:24;10.82;;;3.03;;
20657;SDS011;10488;50.846;4.078;2023-07-13T02:30:49;11.27;;;3.10;;
20657;SDS011;10488;50.846;4.078;2023-07-13T02:33:15;14.93;;;3.67;;
20657;SDS011;10488;50.846;4.078;2023-07-13T02:35:41;11.23;;;3.38;;
20657;SDS011;10488;50.846;4.078;2023-07-13T02:38:06;13.15;;;2.90;;
20657;SDS011;10488;50.846;4.078;2023-07-13T02:40:33;9.15;;;3.00;;
20657;SDS011;10488;50.846;4.078;2023-07-13T02:43:00;10.18;;;3.00;;
20657;SDS011;10488;50.846;4.078;2023-07-13T02:45:26;13.70;;;3.50;;
20657;SDS011;10488;50.846;4.078;2023-07-13T02:47:53;10.80;;;3.30;;
20657;SDS011;10488;50.846;4.078;2023-07-13T02:50:19;11.32;;;2.92;;
20657;SDS011;10488;50.846;4.078;2023-07-13T02:52:45;9.48;;;3.58;;
20657;SDS011;10488;50.846;4.078;2023-07-13T02:55:11;15.07;;;3.85;;
20657;SDS011;10488;50.846;4.078;2023-07-13T02:57:37;12.23;;;3.47;;
20657;SDS011;10488;50.846;4.078;2023-07-13T03:00:03;10.35;;;3.30;;
20657;SDS011;10488;50.846;4.078;2023-07-13T03:02:32;14.82;;;3.22;;
20657;SDS011;10488;50.846;4.078;2023-07-13T03:04:58;17.67;;;3.60;;
20657;SDS011;10488;50.846;4.078;2023-07-13T03:07:24;10.85;;;3.40;;
20657;SDS011;10488;50.846;4.078;2023-07-13T03:09:54;14.38;;;3.90;;
20657;SDS011;10488;50.846;4.078;2023-07-13T03:12:21;17.40;;;3.35;;
20657;SDS011;10488;50.846;4.078;2023-07-13T03:14:47;14.65;;;3.53;;
20657;SDS011;10488;50.846;4.078;2023-07-13T03:17:13;17.83;;;3.60;;
20657;SDS011;10488;50.846;4.078;2023-07-13T03:19:38;14.38;;;3.55;;
20657;SDS011;10488;50.846;4.078;2023-07-13T03:22:04;18.98;;;3.83;;
20657;SDS011;10488;50.846;4.078;2023-07-13T03:24:31;11.00;;;3.38;;
20657;SDS011;10488;50.846;4.078;2023-07-13T03:26:58;13.50;;;3.67;;
20657;SDS011;10488;50.846;4.078;2023-07-13T03:29:25;11.23;;;4.00;;
20657;SDS011;10488;50.846;4.078;2023-07-13T03:31:51;13.25;;;4.00;;
20657;SDS011;10488;50.846;4.078;2023-07-13T03:34:16;6.38;;;3.40;;
20657;SDS011;10488;50.846;4.078;2023-07-13T03:36:42;10.85;;;3.60;;
20657;SDS011;10488;50.846;4.078;2023-07-13T03:39:08;16.02;;;4.75;;
20657;SDS011;10488;50.846;4.078;2023-07-13T03:41:34;12.02;;;3.90;;
20657;SDS011;10488;50.846;4.078;2023-07-13T03:43:59;14.60;;;3.80;;
20657;SDS011;10488;50.846;4.078;2023-07-13T03:46:25;19.38;;;3.90;;
20657;SDS011;10488;50.846;4.078;2023-07-13T03:48:51;9.45;;;3.78;;
20657;SDS011;10488;50.846;4.078;2023-07-13T03:51:17;13.45;;;4.13;;
20657;SDS011;10488;50.846;4.078;2023-07-13T03:53:43;11.13;;;3.28;;
20657;SDS011;10488;50.846;4.078;2023-07-13T03:56:10;11.02;;;4.05;;
20657;SDS011;10488;50.846;4.078;2023-07-13T03:58:38;17.08;;;3.80;;
20657;SDS011;10488;50.846;4.078;2023-07-13T04:01:05;15.07;;;3.80;;
20657;SDS011;10488;50.846;4.078;2023-07-13T04:03:32;18.88;;;4.35;;
20657;SDS011;10488;50.846;4.078;2023-07-13T04:06:05;13.98;;;3.70;;
20657;SDS011;10488;50.846;4.078;2023-07-13T04:08:33;12.20;;;3.22;;
20657;SDS011;10488;50.846;4.078;2023-07-13T04:11:00;6.72;;;3.30;;
20657;SDS011;10488;50.846;4.078;2023-07-13T04:13:27;11.77;;;3.75;;
20657;SDS011;10488;50.846;4.078;2023-07-13T04:15:53;9.20;;;2.90;;
20657;SDS011;10488;50.846;4.078;2023-07-13T04:18:19;17.17;;;3.50;;
20657;SDS011;10488;50.846;4.078;2023-07-13T04:20:45;10.98;;;3.50;;
20657;SDS011;10488;50.846;4.078;2023-07-13T04:23:12;10.82;;;3.67;;
20657;SDS011;10488;50.846;4.078;2023-07-13T04:25:38;13.95;;;4.20;;
20657;SDS011;10488;50.846;4.078;2023-07-13T04:28:04;18.90;;;3.47;;
20657;SDS011;10488;50.846;4.078;2023-07-13T04:30:30;13.80;;;4.05;;
20657;SDS011;10488;50.846;4.078;2023-07-13T04:32:56;12.65;;;3.30;;
20657;SDS011;10488;50.846;4.078;2023-07-13T04:35:22;16.60;;;3.85;;
20657;SDS011;10488;50.846;4.078;2023-07-13T04:37:48;9.65;;;3.60;;
20657;SDS011;10488;50.846;4.078;2023-07-13T04:40:15;11.32;;;3.05;;
20657;SDS011;10488;50.846;4.078;2023-07-13T04:42:42;20.45;;;4.15;;
20657;SDS011;10488;50.846;4.078;2023-07-13T04:45:09;9.30;;;3.47;;
20657;SDS011;10488;50.846;4.078;2023-07-13T04:47:36;15.88;;;3.20;;
20657;SDS011;10488;50.846;4.078;2023-07-13T04:50:01;14.63;;;4.35;;
20657;SDS011;10488;50.846;4.078;2023-07-13T04:52:27;16.50;;;3.47;;
20657;SDS011;10488;50.846;4.078;2023-07-13T04:54:53;12.82;;;3.58;;
20657;SDS011;10488;50.846;4.078;2023-07-13T04:57:19;13.85;;;3.78;;
20657;SDS011;10488;50.846;4.078;2023-07-13T04:59:44;15.27;;;3.78;;
20657;SDS011;10488;50.846;4.078;2023-07-13T05:02:10;8.60;;;3.63;;
20657;SDS011;10488;50.846;4.078;2023-07-13T05:04:36;14.82;;;3.58;;
20657;SDS011;10488;50.846;4.078;2023-07-13T05:07:02;9.65;;;2.90;;
20657;SDS011;10488;50.846;4.078;2023-07-13T05:09:27;9.75;;;3.65;;
20657;SDS011;10488;50.846;4.078;2023-07-13T05:11:53;17.25;;;4.30;;
20657;SDS011;10488;50.846;4.078;2023-07-13T05:14:19;11.48;;;3.10;;
20657;SDS011;10488;50.846;4.078;2023-07-13T05:16:44;15.90;;;3.78;;
20657;SDS011;10488;50.846;4.078;2023-07-13T05:19:10;19.88;;;3.88;;
20657;SDS011;10488;50.846;4.078;2023-07-13T05:21:37;12.15;;;3.72;;
20657;SDS011;10488;50.846;4.078;2023-07-13T05:24:02;12.77;;;3.97;;
20657;SDS011;10488;50.846;4.078;2023-07-13T05:26:28;10.77;;;3.05;;
20657;SDS011;10488;50.846;4.078;2023-07-13T05:28:54;6.65;;;3.00;;
20657;SDS011;10488;50.846;4.078;2023-07-13T05:31:19;12.35;;;3.30;;
20657;SDS011;10488;50.846;4.078;2023-07-13T05:33:45;14.82;;;3.22;;
20657;SDS011;10488;50.846;4.078;2023-07-13T05:36:11;13.55;;;3.75;;
20657;SDS011;10488;50.846;4.078;2023-07-13T05:38:36;18.70;;;4.20;;
20657;SDS011;10488;50.846;4.078;2023-07-13T05:41:02;10.15;;;3.38;;
20657;SDS011;10488;50.846;4.078;2023-07-13T05:43:28;18.30;;;3.50;;
20657;SDS011;10488;50.846;4.078;2023-07-13T05:45:54;16.27;;;3.30;;
20657;SDS011;10488;50.846;4.078;2023-07-13T05:48:21;19.58;;;4.20;;
20657;SDS011;10488;50.846;4.078;2023-07-13T05:50:47;12.80;;;3.35;;
20657;SDS011;10488;50.846;4.078;2023-07-13T05:53:13;12.88;;;3.72;;
20657;SDS011;10488;50.846;4.078;2023-07-13T05:55:45;17.77;;;3.38;;
20657;SDS011;10488;50.846;4.078;2023-07-13T05:58:18;20.00;;;3.63;;
20657;SDS011;10488;50.846;4.078;2023-07-13T06:00:45;16.33;;;2.95;;
20657;SDS011;10488;50.846;4.078;2023-07-13T06:03:14;24.77;;;4.00;;
20657;SDS011;10488;50.846;4.078;2023-07-13T06:05:40;10.18;;;3.17;;
20657;SDS011;10488;50.846;4.078;2023-07-13T06:08:06;12.13;;;3.63;;
20657;SDS011;10488;50.846;4.078;2023-07-13T06:10:33;14.27;;;4.28;;
20657;SDS011;10488;50.846;4.078;2023-07-13T06:13:00;14.00;;;3.53;;
20657;SDS011;10488;50.846;4.078;2023-07-13T06:15:26;12.68;;;3.20;;
20657;SDS011;10488;50.846;4.078;2023-07-13T06:17:51;19.50;;;4.38;;
20657;SDS011;10488;50.846;4.078;2023-07-13T06:20:17;15.25;;;3.78;;
20657;SDS011;10488;50.846;4.078;2023-07-13T06:22:43;15.02;;;4.35;;
20657;SDS011;10488;50.846;4.078;2023-07-13T06:25:08;14.98;;;3.72;;
20657;SDS011;10488;50.846;4.078;2023-07-13T06:27:34;17.13;;;3.80;;
20657;SDS011;10488;50.846;4.078;2023-07-13T06:30:00;16.33;;;3.78;;
20657;SDS011;10488;50.846;4.078;2023-07-13T06:32:25;17.17;;;3.40;;
20657;SDS011;10488;50.846;4.078;2023-07-13T06:34:51;13.23;;;3.88;;
20657;SDS011;10488;50.846;4.078;2023-07-13T06:37:17;13.93;;;5.15;;
20657;SDS011;10488;50.846;4.078;2023-07-13T06:39:43;13.50;;;3.58;;
20657;SDS011;10488;50.846;4.078;2023-07-13T06:42:09;9.07;;;2.90;;
20657;SDS011;10488;50.846;4.078;2023-07-13T06:44:36;15.95;;;3.60;;
20657;SDS011;10488;50.846;4.078;2023-07-13T06:47:01;17.30;;;3.55;;
20657;SDS011;10488;50.846;4.078;2023-07-13T06:49:27;11.77;;;3.45;;
20657;SDS011;10488;50.846;4.078;2023-07-13T06:51:53;12.18;;;3.20;;
20657;SDS011;10488;50.846;4.078;2023-07-13T06:54:18;8.20;;;2.70;;
20657;SDS011;10488;50.846;4.078;2023-07-13T06:56:44;14.70;;;3.25;;
20657;SDS011;10488;50.846;4.078;2023-07-13T06:59:10;10.38;;;3.05;;
20657;SDS011;10488;50.846;4.078;2023-07-13T07:01:35;10.30;;;3.15;;
20657;SDS011;10488;50.846;4.078;2023-07-13T07:04:02;11.75;;;2.60;;
20657;SDS011;10488;50.846;4.078;2023-07-13T07:06:28;12.02;;;2.95;;
20657;SDS011;10488;50.846;4.078;2023-07-13T07:08:54;10.55;;;2.67;;
20657;SDS011;10488;50.846;4.078;2023-07-13T07:11:21;12.45;;;2.58;;
20657;SDS011;10488;50.846;4.078;2023-07-13T07:13:48;11.18;;;2.90;;
20657;SDS011;10488;50.846;4.078;2023-07-13T07:16:15;12.75;;;3.08;;
20657;SDS011;10488;50.846;4.078;2023-07-13T07:18:41;13.73;;;2.58;;
20657;SDS011;10488;50.846;4.078;2023-07-13T07:21:07;6.75;;;2.58;;
20657;SDS011;10488;50.846;4.078;2023-07-13T07:23:32;11.55;;;2.60;;
20657;SDS011;10488;50.846;4.078;2023-07-13T07:25:58;9.60;;;3.13;;
20657;SDS011;10488;50.846;4.078;2023-07-13T07:28:24;10.88;;;2.28;;
20657;SDS011;10488;50.846;4.078;2023-07-13T07:30:52;11.23;;;2.50;;
20657;SDS011;10488;50.846;4.078;2023-07-13T07:33:18;10.13;;;2.35;;
20657;SDS011;10488;50.846;4.078;2023-07-13T07:35:44;17.85;;;2.95;;
20657;SDS011;10488;50.846;4.078;2023-07-13T07:38:09;8.60;;;2.38;;
20657;SDS011;10488;50.846;4.078;2023-07-13T07:40:38;10.43;;;2.72;;
20657;SDS011;10488;50.846;4.078;2023-07-13T07:43:05;9.35;;;2.30;;
20657;SDS011;10488;50.846;4.078;2023-07-13T07:45:35;13.65;;;2.85;;
20657;SDS011;10488;50.846;4.078;2023-07-13T07:48:02;6.80;;;2.70;;
20657;SDS011;10488;50.846;4.078;2023-07-13T07:50:28;11.43;;;2.80;;
20657;SDS011;10488;50.846;4.078;2023-07-13T07:52:54;14.70;;;2.50;;
20657;SDS011;10488;50.846;4.078;2023-07-13T07:55:23;13.52;;;2.70;;
20657;SDS011;10488;50.846;4.078;2023-07-13T07:57:50;13.63;;;2.72;;
20657;SDS011;10488;50.846;4.078;2023-07-13T08:00:16;9.90;;;3.03;;
20657;SDS011;10488;50.846;4.078;2023-07-13T08:02:43;11.38;;;3.60;;
20657;SDS011;10488;50.846;4.078;2023-07-13T08:05:09;14.73;;;3.10;;
20657;SDS011;10488;50.846;4.078;2023-07-13T08:07:35;11.25;;;2.60;;
20657;SDS011;10488;50.846;4.078;2023-07-13T08:10:02;11.70;;;3.35;;
20657;SDS011;10488;50.846;4.078;2023-07-13T08:12:28;10.95;;;3.55;;
20657;SDS011;10488;50.846;4.078;2023-07-13T08:14:54;10.90;;;2.97;;
20657;SDS011;10488;50.846;4.078;2023-07-13T08:17:22;9.10;;;3.20;;
20657;SDS011;10488;50.846;4.078;2023-07-13T08:19:49;7.78;;;2.90;;
20657;SDS011;10488;50.846;4.078;2023-07-13T08:22:15;12.70;;;2.63;;
20657;SDS011;10488;50.846;4.078;2023-07-13T08:24:41;7.72;;;2.70;;
20657;SDS011;10488;50.846;4.078;2023-07-13T08:27:10;10.82;;;3.13;;
20657;SDS011;10488;50.846;4.078;2023-07-13T08:29:36;12.57;;;3.35;;
20657;SDS011;10488;50.846;4.078;2023-07-13T08:32:04;13.82;;;3.22;;
20657;SDS011;10488;50.846;4.078;2023-07-13T08:34:31;14.55;;;3.00;;
20657;SDS011;10488;50.846;4.078;2023-07-13T08:36:56;10.23;;;2.75;;
20657;SDS011;10488;50.846;4.078;2023-07-13T08:39:22;14.57;;;3.72;;
20657;SDS011;10488;50.846;4.078;2023-07-13T08:41:48;10.98;;;2.90;;
20657;SDS011;10488;50.846;4.078;2023-07-13T08:45:06;10.60;;;2.60;;
20657;SDS011;10488;50.846;4.078;2023-07-13T08:47:09;14.32;;;2.30;;
20657;SDS011;10488;50.846;4.078;2023-07-13T08:49:36;10.32;;;2.42;;
20657;SDS011;10488;50.846;4.078;2023-07-13T08:52:13;11.10;;;2.58;;
20657;SDS011;10488;50.846;4.078;2023-07-13T08:54:48;8.05;;;2.58;;
20657;SDS011;10488;50.846;4.078;2023-07-13T08:57:18;10.63;;;2.17;;
20657;SDS011;10488;50.846;4.078;2023-07-13T08:59:49;8.75;;;1.90;;
20657;SDS011;10488;50.846;4.078;2023-07-13T09:02:18;6.93;;;2.00;;
20657;SDS011;10488;50.846;4.078;2023-07-13T09:05:04;8.07;;;2.67;;
20657;SDS011;10488;50.846;4.078;2023-07-13T09:15:40;14.65;;;2.78;;
20657;SDS011;10488;50.846;4.078;2023-07-13T09:18:14;9.68;;;2.15;;
20657;SDS011;10488;50.846;4.078;2023-07-13T09:20:57;10.00;;;2.33;;
20657;SDS011;10488;50.846;4.078;2023-07-13T09:23:29;11.32;;;2.17;;
20657;SDS011;10488;50.846;4.078;2023-07-13T09:28:41;7.45;;;2.30;;
20657;SDS011;10488;50.846;4.078;2023-07-13T09:31:15;7.28;;;1.92;;
20657;SDS011;10488;50.846;4.078;2023-07-13T09:33:41;8.07;;;2.40;;
20657;SDS011;10488;50.846;4.078;2023-07-13T09:39:02;8.88;;;2.10;;
20657;SDS011;10488;50.846;4.078;2023-07-13T09:42:29;11.15;;;2.33;;
20657;SDS011;10488;50.846;4.078;2023-07-13T09:47:16;9.60;;;2.42;;
20657;SDS011;10488;50.846;4.078;2023-07-13T09:49:44;7.53;;;2.08;;
20657;SDS011;10488;50.846;4.078;2023-07-13T09:52:11;10.18;;;1.88;;
20657;SDS011;10488;50.846;4.078;2023-07-13T09:54:39;9.13;;;1.77;;
20657;SDS011;10488;50.846;4.078;2023-07-13T09:57:13;6.63;;;1.42;;
20657;SDS011;10488;50.846;4.078;2023-07-13T09:59:43;7.10;;;1.77;;
20657;SDS011;10488;50.846;4.078;2023-07-13T10:05:03;4.00;;;1.70;;
20657;SDS011;10488;50.846;4.078;2023-07-13T10:07:31;5.35;;;1.70;;
20657;SDS011;10488;50.846;4.078;2023-07-13T10:09:58;11.35;;;2.85;;
20657;SDS011;10488;50.846;4.078;2023-07-13T10:12:29;11.32;;;2.03;;
20657;SDS011;10488;50.846;4.078;2023-07-13T10:15:00;7.53;;;2.17;;
20657;SDS011;10488;50.846;4.078;2023-07-13T10:17:29;7.00;;;2.70;;
20657;SDS011;10488;50.846;4.078;2023-07-13T10:20:02;12.98;;;2.83;;
20657;SDS011;10488;50.846;4.078;2023-07-13T10:22:38;5.95;;;2.13;;
20657;SDS011;10488;50.846;4.078;2023-07-13T10:25:18;10.05;;;2.85;;
20657;SDS011;10488;50.846;4.078;2023-07-13T10:27:47;7.32;;;2.67;;
20657;SDS011;10488;50.846;4.078;2023-07-13T10:33:00;9.93;;;2.47;;
20657;SDS011;10488;50.846;4.078;2023-07-13T10:35:28;7.22;;;2.40;;
20657;SDS011;10488;50.846;4.078;2023-07-13T10:37:57;13.38;;;3.03;;
20657;SDS011;10488;50.846;4.078;2023-07-13T10:40:33;8.27;;;2.22;;
20657;SDS011;10488;50.846;4.078;2023-07-13T10:43:06;8.30;;;2.45;;
20657;SDS011;10488;50.846;4.078;2023-07-13T10:45:39;10.70;;;2.78;;
20657;SDS011;10488;50.846;4.078;2023-07-13T10:48:06;11.00;;;2.42;;
20657;SDS011;10488;50.846;4.078;2023-07-13T10:50:37;8.55;;;2.72;;
20657;SDS011;10488;50.846;4.078;2023-07-13T10:53:20;11.27;;;1.58;;
20657;SDS011;10488;50.846;4.078;2023-07-13T10:58:22;5.88;;;1.83;;
20657;SDS011;10488;50.846;4.078;2023-07-13T11:00:57;11.70;;;2.35;;
20657;SDS011;10488;50.846;4.078;2023-07-13T11:03:54;9.48;;;2.17;;
20657;SDS011;10488;50.846;4.078;2023-07-13T11:11:47;7.30;;;1.65;;
20657;SDS011;10488;50.846;4.078;2023-07-13T11:16:45;8.45;;;2.53;;
20657;SDS011;10488;50.846;4.078;2023-07-13T11:24:52;7.13;;;1.63;;
20657;SDS011;10488;50.846;4.078;2023-07-13T11:30:25;7.03;;;1.90;;
20657;SDS011;10488;50.846;4.078;2023-07-13T11:35:51;4.85;;;1.77;;
20657;SDS011;10488;50.846;4.078;2023-07-13T11:38:38;6.10;;;1.75;;
20657;SDS011;10488;50.846;4.078;2023-07-13T11:41:07;6.47;;;3.00;;
20657;SDS011;10488;50.846;4.078;2023-07-13T11:43:35;6.95;;;1.88;;
20657;SDS011;10488;50.846;4.078;2023-07-13T11:46:20;5.47;;;2.30;;
20657;SDS011;10488;50.846;4.078;2023-07-13T11:48:48;9.02;;;2.35;;
20657;SDS011;10488;50.846;4.078;2023-07-13T11:51:37;8.93;;;1.73;;
20657;SDS011;10488;50.846;4.078;2023-07-13T11:54:05;2.33;;;0.75;;
20657;SDS011;10488;50.846;4.078;2023-07-13T11:56:38;5.32;;;1.30;;
20657;SDS011;10488;50.846;4.078;2023-07-13T11:59:06;4.88;;;1.75;;
20657;SDS011;10488;50.846;4.078;2023-07-13T12:01:33;4.43;;;1.65;;
20657;SDS011;10488;50.846;4.078;2023-07-13T12:04:08;4.18;;;1.40;;
20657;SDS011;10488;50.846;4.078;2023-07-13T12:06:46;3.47;;;1.98;;
20657;SDS011;10488;50.846;4.078;2023-07-13T12:09:17;6.47;;;2.10;;
20657;SDS011;10488;50.846;4.078;2023-07-13T12:11:45;6.25;;;1.77;;
20657;SDS011;10488;50.846;4.078;2023-07-13T12:14:17;6.32;;;1.38;;
20657;SDS011;10488;50.846;4.078;2023-07-13T12:16:44;4.85;;;1.95;;
20657;SDS011;10488;50.846;4.078;2023-07-13T12:19:17;4.60;;;1.83;;
20657;SDS011;10488;50.846;4.078;2023-07-13T12:21:45;4.55;;;1.90;;
20657;SDS011;10488;50.846;4.078;2023-07-13T12:24:15;5.15;;;1.77;;
20657;SDS011;10488;50.846;4.078;2023-07-13T12:26:42;3.63;;;1.88;;
20657;SDS011;10488;50.846;4.078;2023-07-13T12:29:10;2.90;;;2.03;;
20657;SDS011;10488;50.846;4.078;2023-07-13T12:31:42;3.55;;;1.65;;
20657;SDS011;10488;50.846;4.078;2023-07-13T12:34:14;3.97;;;1.77;;
20657;SDS011;10488;50.846;4.078;2023-07-13T12:36:46;3.53;;;1.67;;
20657;SDS011;10488;50.846;4.078;2023-07-13T12:44:57;2.42;;;1.65;;
20657;SDS011;10488;50.846;4.078;2023-07-13T12:47:26;1.58;;;1.27;;
20657;SDS011;10488;50.846;4.078;2023-07-13T12:49:57;4.35;;;1.55;;
20657;SDS011;10488;50.846;4.078;2023-07-13T12:52:30;3.42;;;1.55;;
20657;SDS011;10488;50.846;4.078;2023-07-13T12:55:04;3.00;;;1.65;;
20657;SDS011;10488;50.846;4.078;2023-07-13T12:57:31;4.47;;;1.90;;
20657;SDS011;10488;50.846;4.078;2023-07-13T12:59:57;5.78;;;1.65;;
20657;SDS011;10488;50.846;4.078;2023-07-13T13:02:56;3.95;;;1.83;;
20657;SDS011;10488;50.846;4.078;2023-07-13T13:05:15;6.75;;;1.23;;
20657;SDS011;10488;50.846;4.078;2023-07-13T13:07:40;2.20;;;1.17;;
20657;SDS011;10488;50.846;4.078;2023-07-13T13:10:12;4.28;;;1.52;;
20657;SDS011;10488;50.846;4.078;2023-07-13T13:12:39;3.63;;;1.30;;
20657;SDS011;10488;50.846;4.078;2023-07-13T13:15:07;5.25;;;1.70;;
20657;SDS011;10488;50.846;4.078;2023-07-13T13:17:34;4.65;;;1.33;;
20657;SDS011;10488;50.846;4.078;2023-07-13T13:20:00;3.58;;;1.73;;
20657;SDS011;10488;50.846;4.078;2023-07-13T13:22:26;3.60;;;1.48;;
20657;SDS011;10488;50.846;4.078;2023-07-13T13:24:52;5.15;;;1.40;;
20657;SDS011;10488;50.846;4.078;2023-07-13T13:27:18;6.03;;;1.65;;
20657;SDS011;10488;50.846;4.078;2023-07-13T13:29:47;2.50;;;1.23;;
20657;SDS011;10488;50.846;4.078;2023-07-13T13:32:16;4.00;;;1.77;;
20657;SDS011;10488;50.846;4.078;2023-07-13T13:34:43;4.60;;;1.45;;
20657;SDS011;10488;50.846;4.078;2023-07-13T13:37:17;7.18;;;1.80;;
20657;SDS011;10488;50.846;4.078;2023-07-13T13:39:45;6.53;;;1.48;;
20657;SDS011;10488;50.846;4.078;2023-07-13T13:42:11;7.38;;;1.38;;
20657;SDS011;10488;50.846;4.078;2023-07-13T13:44:37;3.47;;;1.33;;
20657;SDS011;10488;50.846;4.078;2023-07-13T13:47:03;2.90;;;1.30;;
20657;SDS011;10488;50.846;4.078;2023-07-13T13:49:29;5.13;;;1.23;;
20657;SDS011;10488;50.846;4.078;2023-07-13T13:51:55;5.93;;;1.60;;
20657;SDS011;10488;50.846;4.078;2023-07-13T13:54:22;4.20;;;1.50;;
20657;SDS011;10488;50.846;4.078;2023-07-13T13:56:49;5.10;;;1.48;;
20657;SDS011;10488;50.846;4.078;2023-07-13T13:59:16;6.65;;;1.55;;
20657;SDS011;10488;50.846;4.078;2023-07-13T14:01:43;3.67;;;1.30;;
20657;SDS011;10488;50.846;4.078;2023-07-13T14:04:14;6.25;;;1.63;;
20657;SDS011;10488;50.846;4.078;2023-07-13T14:06:42;6.10;;;1.10;;
20657;SDS011;10488;50.846;4.078;2023-07-13T14:09:10;7.00;;;1.52;;
20657;SDS011;10488;50.846;4.078;2023-07-13T14:11:39;3.80;;;1.30;;
20657;SDS011;10488;50.846;4.078;2023-07-13T14:14:27;6.22;;;1.73;;
20657;SDS011;10488;50.846;4.078;2023-07-13T14:16:53;4.00;;;1.50;;
20657;SDS011;10488;50.846;4.078;2023-07-13T14:19:21;2.47;;;1.55;;
20657;SDS011;10488;50.846;4.078;2023-07-13T14:21:47;3.83;;;1.10;;
20657;SDS011;10488;50.846;4.078;2023-07-13T14:24:14;2.65;;;1.10;;
20657;SDS011;10488;50.846;4.078;2023-07-13T14:26:40;1.77;;;0.98;;
20657;SDS011;10488;50.846;4.078;2023-07-13T14:29:12;2.67;;;1.30;;
20657;SDS011;10488;50.846;4.078;2023-07-13T14:31:40;4.47;;;1.70;;
20657;SDS011;10488;50.846;4.078;2023-07-13T14:34:07;2.63;;;1.25;;
20657;SDS011;10488;50.846;4.078;2023-07-13T14:36:38;3.47;;;1.40;;
20657;SDS011;10488;50.846;4.078;2023-07-13T14:39:14;3.42;;;1.45;;
20657;SDS011;10488;50.846;4.078;2023-07-13T14:41:55;2.78;;;1.23;;
20657;SDS011;10488;50.846;4.078;2023-07-13T14:44:26;2.42;;;1.08;;
20657;SDS011;10488;50.846;4.078;2023-07-13T14:46:57;4.45;;;1.45;;
20657;SDS011;10488;50.846;4.078;2023-07-13T14:54:51;3.22;;;1.10;;
20657;SDS011;10488;50.846;4.078;2023-07-13T14:57:17;5.43;;;1.50;;
20657;SDS011;10488;50.846;4.078;2023-07-13T14:59:44;1.98;;;1.05;;
20657;SDS011;10488;50.846;4.078;2023-07-13T15:04:45;4.53;;;1.48;;
20657;SDS011;10488;50.846;4.078;2023-07-13T15:07:11;3.47;;;1.02;;
20657;SDS011;10488;50.846;4.078;2023-07-13T15:09:38;3.67;;;1.20;;
20657;SDS011;10488;50.846;4.078;2023-07-13T15:12:04;4.15;;;1.10;;
20657;SDS011;10488;50.846;4.078;2023-07-13T15:14:30;7.85;;;1.38;;
20657;SDS011;10488;50.846;4.078;2023-07-13T15:16:57;4.97;;;1.55;;
20657;SDS011;10488;50.846;4.078;2023-07-13T15:19:23;3.92;;;1.10;;
20657;SDS011;10488;50.846;4.078;2023-07-13T15:21:51;4.97;;;1.20;;
20657;SDS011;10488;50.846;4.078;2023-07-13T15:24:19;5.07;;;1.45;;
20657;SDS011;10488;50.846;4.078;2023-07-13T15:26:45;4.10;;;1.50;;
20657;SDS011;10488;50.846;4.078;2023-07-13T15:29:14;4.80;;;1.45;;
20657;SDS011;10488;50.846;4.078;2023-07-13T15:31:40;1.98;;;1.60;;
20657;SDS011;10488;50.846;4.078;2023-07-13T15:34:13;2.08;;;1.20;;
20657;SDS011;10488;50.846;4.078;2023-07-13T15:36:41;4.30;;;1.67;;
20657;SDS011;10488;50.846;4.078;2023-07-13T15:39:08;2.60;;;1.17;;
20657;SDS011;10488;50.846;4.078;2023-07-13T15:41:41;2.33;;;1.35;;
20657;SDS011;10488;50.846;4.078;2023-07-13T15:44:19;2.70;;;1.25;;
20657;SDS011;10488;50.846;4.078;2023-07-13T15:46:53;3.35;;;1.15;;